createdAt,value
2019-03-18T00:00:13.331Z,1.20
2019-03-18T00:02:41.711Z,1.73
2019-03-18T00:05:10.165Z,1.30
2019-03-18T00:07:38.676Z,1.37
2019-03-18T00:10:08.402Z,1.50
2019-03-18T00:12:36.789Z,1.50
2019-03-18T00:15:09.704Z,0.87
2019-03-18T00:17:38.666Z,1.07
2019-03-18T00:20:08.904Z,1.47
2019-03-18T00:22:37.279Z,1.10
2019-03-18T00:25:08.136Z,1.57
2019-03-18T00:27:36.521Z,1.77
2019-03-18T00:30:11.005Z,1.53
2019-03-18T00:32:39.398Z,1.80
2019-03-18T00:35:08.876Z,1.50
2019-03-18T00:37:37.261Z,1.30
2019-03-18T00:40:08.905Z,1.47
2019-03-18T00:42:37.276Z,1.67
2019-03-18T00:45:14.610Z,1.20
2019-03-18T00:47:37.410Z,1.37
2019-03-18T00:50:15.988Z,1.47
2019-03-18T00:52:44.905Z,1.30
2019-03-18T00:55:13.416Z,1.50
2019-03-18T00:57:41.793Z,1.20
2019-03-18T01:00:17.487Z,1.10
2019-03-18T01:02:45.862Z,1.30
2019-03-18T01:05:14.510Z,1.70
2019-03-18T01:07:42.895Z,1.43
2019-03-18T01:10:13.673Z,1.13
2019-03-18T01:12:42.044Z,1.03
2019-03-18T01:15:11.263Z,1.20
2019-03-18T01:17:39.650Z,1.20
2019-03-18T01:20:10.716Z,1.53
2019-03-18T01:22:39.098Z,1.20
2019-03-18T01:25:09.023Z,1.40
2019-03-18T01:27:37.387Z,1.17
2019-03-18T01:30:10.750Z,1.20
2019-03-18T01:32:39.173Z,1.20
2019-03-18T01:35:09.867Z,1.47
2019-03-18T01:37:39.180Z,1.20
2019-03-18T01:40:09.800Z,1.30
2019-03-18T01:42:39.228Z,1.60
2019-03-18T01:45:08.335Z,1.10
2019-03-18T01:47:36.797Z,1.30
2019-03-18T01:50:08.622Z,1.33
2019-03-18T01:52:37.005Z,1.03
2019-03-18T01:55:06.731Z,1.10
2019-03-18T01:57:35.112Z,1.10
2019-03-18T02:00:04.568Z,1.30
2019-03-18T02:02:32.954Z,1.63
2019-03-18T02:05:01.337Z,1.30
2019-03-18T02:07:29.723Z,1.43
2019-03-18T02:09:58.081Z,1.10
2019-03-18T02:12:26.464Z,1.50
2019-03-18T02:14:54.835Z,1.30
2019-03-18T02:17:23.209Z,1.30
2019-03-18T02:19:51.585Z,1.72
2019-03-18T02:22:19.960Z,1.10
2019-03-18T02:24:48.324Z,1.20
2019-03-18T02:27:16.708Z,1.45
2019-03-18T02:29:45.079Z,1.33
2019-03-18T02:32:13.463Z,1.13
2019-03-18T02:34:41.817Z,1.30
2019-03-18T02:37:10.189Z,1.27
2019-03-18T02:39:39.607Z,1.30
2019-03-18T02:42:07.992Z,1.07
2019-03-18T02:44:36.361Z,1.20
2019-03-18T02:47:04.741Z,1.03
2019-03-18T02:49:33.103Z,1.40
2019-03-18T02:52:01.461Z,1.20
2019-03-18T02:54:29.927Z,1.43
2019-03-18T02:56:58.300Z,1.43
2019-03-18T02:59:26.672Z,1.33
2019-03-18T03:01:55.947Z,1.17
2019-03-18T03:04:24.357Z,1.30
2019-03-18T03:06:52.716Z,1.40
2019-03-18T03:09:21.117Z,1.37
2019-03-18T03:11:49.460Z,1.55
2019-03-18T03:14:17.841Z,0.90
2019-03-18T03:16:46.275Z,0.90
2019-03-18T03:19:14.648Z,1.00
2019-03-18T03:21:43.030Z,1.50
2019-03-18T03:24:11.393Z,1.67
2019-03-18T03:26:40.036Z,1.15
2019-03-18T03:29:08.415Z,1.70
2019-03-18T03:31:36.780Z,1.07
2019-03-18T03:34:05.180Z,1.00
2019-03-18T03:36:33.531Z,1.50
2019-03-18T03:39:01.912Z,1.57
2019-03-18T03:41:30.607Z,1.10
2019-03-18T03:43:58.982Z,1.47
2019-03-18T03:46:42.300Z,1.00
2019-03-18T03:48:57.455Z,0.97
2019-03-18T03:51:25.814Z,1.30
2019-03-18T03:53:54.255Z,1.20
2019-03-18T03:56:22.798Z,1.70
2019-03-18T03:58:51.301Z,0.87
2019-03-18T04:01:19.740Z,1.10
2019-03-18T04:03:48.113Z,1.47
2019-03-18T04:06:16.502Z,1.20
2019-03-18T04:08:45.301Z,1.17
2019-03-18T04:11:15.402Z,1.20
2019-03-18T04:13:43.760Z,1.20
2019-03-18T04:16:12.136Z,1.40
2019-03-18T04:18:40.502Z,1.47
2019-03-18T04:21:09.038Z,0.97
2019-03-18T04:23:37.421Z,1.07
2019-03-18T04:26:06.149Z,1.50
2019-03-18T04:28:34.520Z,1.33
2019-03-18T04:31:02.900Z,1.50
2019-03-18T04:33:31.267Z,1.30
2019-03-18T04:35:59.634Z,1.57
2019-03-18T04:38:27.998Z,1.53
2019-03-18T04:40:56.361Z,1.23
2019-03-18T04:43:24.732Z,1.33
2019-03-18T04:45:53.097Z,1.33
2019-03-18T04:48:21.479Z,1.30
2019-03-18T04:50:49.863Z,1.23
2019-03-18T04:53:18.233Z,1.40
2019-03-18T04:55:46.829Z,1.07
2019-03-18T04:58:15.205Z,1.43
2019-03-18T05:00:43.584Z,1.83
2019-03-18T05:03:13.003Z,1.40
2019-03-18T05:05:41.368Z,1.20
2019-03-18T05:08:09.740Z,1.43
2019-03-18T05:10:38.115Z,1.37
2019-03-18T05:13:06.488Z,1.30
2019-03-18T05:15:34.861Z,1.00
2019-03-18T05:18:03.234Z,1.40
2019-03-18T05:20:31.603Z,1.33
2019-03-18T05:22:59.982Z,1.50
2019-03-18T05:25:28.340Z,1.30
2019-03-18T05:27:56.719Z,1.17
2019-03-18T05:30:25.088Z,1.60
2019-03-18T05:32:53.467Z,1.30
2019-03-18T05:35:21.837Z,1.13
2019-03-18T05:37:50.215Z,1.40
2019-03-18T05:40:18.581Z,0.93
2019-03-18T05:42:46.958Z,1.10
2019-03-18T05:45:15.335Z,1.82
2019-03-18T05:47:43.703Z,1.47
2019-03-18T05:50:12.614Z,1.77
2019-03-18T05:52:41.341Z,1.73
2019-03-18T05:55:10.349Z,1.70
2019-03-18T05:57:38.735Z,1.60
2019-03-18T06:00:12.158Z,1.30
2019-03-18T06:02:41.471Z,1.60
2019-03-18T06:05:10.095Z,1.30
2019-03-18T06:07:38.456Z,1.57
2019-03-18T06:10:09.908Z,1.40
2019-03-18T06:12:38.275Z,1.80
2019-03-18T06:15:09.097Z,1.57
2019-03-18T06:17:37.467Z,1.60
2019-03-18T06:20:11.611Z,2.00
2019-03-18T06:22:40.050Z,1.60
2019-03-18T06:25:09.266Z,1.33
2019-03-18T06:27:37.628Z,1.77
2019-03-18T06:30:16.634Z,1.53
2019-03-18T06:32:44.989Z,1.23
2019-03-18T06:35:13.370Z,1.43
2019-03-18T06:37:41.746Z,1.40
2019-03-18T06:40:14.242Z,1.70
2019-03-18T06:42:42.614Z,1.60
2019-03-18T06:45:11.928Z,1.70
2019-03-18T06:47:40.289Z,1.40
2019-03-18T06:50:10.308Z,2.90
2019-03-18T06:52:38.677Z,2.50
2019-03-18T06:55:07.290Z,1.73
2019-03-18T06:57:35.675Z,2.63
2019-03-18T07:00:07.030Z,2.37
2019-03-18T07:02:35.448Z,2.10
2019-03-18T07:05:04.659Z,2.30
2019-03-18T07:07:33.084Z,1.70
2019-03-18T07:10:01.461Z,1.50
2019-03-18T07:12:29.822Z,1.60
2019-03-18T07:14:58.196Z,1.83
2019-03-18T07:17:26.558Z,1.70
2019-03-18T07:19:54.928Z,2.20
2019-03-18T07:22:23.362Z,1.97
2019-03-18T07:24:51.676Z,2.33
2019-03-18T07:27:20.040Z,1.77
2019-03-18T07:29:48.431Z,2.13
2019-03-18T07:32:16.785Z,2.97
2019-03-18T07:34:45.270Z,1.93
2019-03-18T07:37:13.634Z,2.27
2019-03-18T07:39:42.006Z,2.20
2019-03-18T07:42:11.363Z,2.33
2019-03-18T07:44:39.733Z,2.07
2019-03-18T07:47:08.102Z,2.50
2019-03-18T07:49:36.473Z,2.00
2019-03-18T07:52:04.852Z,2.50
2019-03-18T07:54:33.385Z,2.10
2019-03-18T07:57:01.771Z,2.43
2019-03-18T07:59:30.141Z,2.10
2019-03-18T08:01:58.514Z,2.80
2019-03-18T08:04:36.905Z,2.80
2019-03-18T08:06:56.977Z,2.67
2019-03-18T08:09:25.345Z,3.33
2019-03-18T08:11:53.720Z,2.90
2019-03-18T08:14:22.081Z,2.80
2019-03-18T08:16:50.459Z,3.20
2019-03-18T08:19:18.815Z,3.10
2019-03-18T08:21:47.222Z,3.00
2019-03-18T08:24:15.582Z,3.33
2019-03-18T08:26:43.965Z,2.60
2019-03-18T08:29:12.335Z,2.80
2019-03-18T08:31:40.710Z,2.90
2019-03-18T08:34:09.078Z,2.80
2019-03-18T08:36:37.479Z,2.80
2019-03-18T08:39:07.185Z,2.43
2019-03-18T08:41:35.565Z,3.73
2019-03-18T08:44:03.999Z,2.73
2019-03-18T08:46:32.373Z,3.17
2019-03-18T08:49:00.733Z,3.20
2019-03-18T08:51:29.105Z,3.43
2019-03-18T08:53:57.471Z,3.50
2019-03-18T08:56:25.841Z,3.60
2019-03-18T08:58:54.211Z,4.40
2019-03-18T09:01:22.584Z,4.20
2019-03-18T09:03:50.956Z,4.40
2019-03-18T09:06:19.337Z,5.27
2019-03-18T09:08:47.700Z,4.13
2019-03-18T09:11:16.086Z,4.40
2019-03-18T09:13:44.462Z,4.00
2019-03-18T09:16:12.851Z,3.80
2019-03-18T09:18:41.216Z,4.47
2019-03-18T09:21:09.583Z,3.77
2019-03-18T09:23:37.959Z,3.97
2019-03-18T09:26:06.318Z,3.43
2019-03-18T09:28:34.692Z,3.67
2019-03-18T09:31:03.060Z,3.87
2019-03-18T09:33:31.432Z,3.80
2019-03-18T09:35:59.811Z,4.20
2019-03-18T09:38:28.201Z,3.00
2019-03-18T09:40:56.570Z,3.47
2019-03-18T09:43:24.935Z,3.83
2019-03-18T09:45:54.546Z,3.40
2019-03-18T09:48:23.157Z,3.23
2019-03-18T09:50:51.547Z,3.93
2019-03-18T09:53:19.923Z,3.93
2019-03-18T09:55:48.284Z,3.50
2019-03-18T09:58:16.659Z,3.30
2019-03-18T10:00:45.022Z,3.43
2019-03-18T10:03:13.396Z,3.53
2019-03-18T10:05:43.970Z,2.90
2019-03-18T10:08:11.865Z,3.30
2019-03-18T10:10:40.229Z,3.37
2019-03-18T10:13:08.609Z,3.73
2019-03-18T10:15:36.966Z,2.90
2019-03-18T10:18:05.340Z,2.80
2019-03-18T10:20:33.710Z,3.07
2019-03-18T10:23:03.138Z,2.43
2019-03-18T10:25:31.537Z,3.00
2019-03-18T10:27:59.917Z,2.60
2019-03-18T10:30:28.414Z,3.07
2019-03-18T10:32:56.793Z,3.00
2019-03-18T10:35:25.160Z,2.60
2019-03-18T10:37:53.536Z,2.60
2019-03-18T10:40:21.915Z,2.43
2019-03-18T10:42:50.275Z,2.57
2019-03-18T10:45:18.709Z,2.50
2019-03-18T10:47:47.258Z,2.30
2019-03-18T10:50:16.863Z,2.60
2019-03-18T10:52:45.258Z,2.57
2019-03-18T10:55:13.869Z,2.40
2019-03-18T10:57:42.301Z,2.97
2019-03-18T11:00:18.388Z,2.47
2019-03-18T11:02:46.816Z,2.90
2019-03-18T11:05:15.378Z,2.43
2019-03-18T11:07:43.885Z,2.63
2019-03-18T11:10:16.509Z,2.00
2019-03-18T11:12:44.883Z,2.40
2019-03-18T11:15:15.541Z,2.80
2019-03-18T11:17:43.907Z,2.90
2019-03-18T11:20:14.298Z,2.23
2019-03-18T11:22:42.655Z,2.73
2019-03-18T11:25:12.165Z,2.63
2019-03-18T11:27:40.521Z,3.20
2019-03-18T11:30:11.737Z,2.40
2019-03-18T11:32:40.098Z,2.10
2019-03-18T11:35:08.640Z,2.97
2019-03-18T11:37:37.000Z,3.33
2019-03-18T11:40:21.648Z,3.23
2019-03-18T11:42:50.435Z,3.40
2019-03-18T11:45:18.928Z,3.60
2019-03-18T11:47:47.288Z,3.53
2019-03-18T11:50:19.698Z,3.10
2019-03-18T11:52:48.058Z,3.50
2019-03-18T11:55:17.879Z,3.20
2019-03-18T11:57:46.276Z,2.90
2019-03-18T12:00:20.349Z,3.20
2019-03-18T12:02:48.699Z,2.80
2019-03-18T12:05:22.014Z,2.80
2019-03-18T12:07:50.375Z,2.70
2019-03-18T12:10:20.735Z,2.30
2019-03-18T12:12:49.163Z,2.93
2019-03-18T12:15:27.471Z,3.07
2019-03-18T12:17:55.832Z,2.63
2019-03-18T12:20:25.622Z,2.87
2019-03-18T12:22:55.719Z,3.23
2019-03-18T12:25:24.135Z,2.80
2019-03-18T12:27:52.500Z,2.47
2019-03-18T12:30:21.615Z,2.10
2019-03-18T12:32:50.046Z,2.70
2019-03-18T12:35:18.536Z,3.10
2019-03-18T12:37:46.965Z,2.80
2019-03-18T12:40:16.094Z,2.80
2019-03-18T12:42:44.785Z,3.10
2019-03-18T12:45:18.135Z,3.23
2019-03-18T12:47:46.651Z,3.07
2019-03-18T12:50:17.136Z,2.63
2019-03-18T12:52:45.609Z,2.30
2019-03-18T12:55:14.414Z,2.47
2019-03-18T12:57:42.924Z,2.60
2019-03-18T13:00:19.626Z,2.40
2019-03-18T13:02:48.229Z,2.17
2019-03-18T13:05:16.665Z,2.73
2019-03-18T13:07:45.102Z,2.40
2019-03-18T13:10:16.064Z,2.60
2019-03-18T13:12:44.493Z,2.50
2019-03-18T13:15:15.909Z,2.40
2019-03-18T13:17:44.349Z,2.10
2019-03-18T13:20:15.189Z,2.60
2019-03-18T13:22:43.573Z,2.77
2019-03-18T13:25:12.768Z,3.00
2019-03-18T13:27:41.483Z,2.13
2019-03-18T13:30:21.030Z,2.90
2019-03-18T13:32:49.487Z,2.43
2019-03-18T13:35:17.858Z,2.50
2019-03-18T13:37:46.292Z,2.50
2019-03-18T13:40:18.621Z,2.87
2019-03-18T13:42:47.032Z,2.60
2019-03-18T13:45:19.973Z,2.50
2019-03-18T13:47:48.615Z,2.43
2019-03-18T13:50:19.174Z,1.87
2019-03-18T13:52:47.527Z,2.20
2019-03-18T13:55:15.971Z,2.57
2019-03-18T13:57:44.345Z,2.83
2019-03-18T14:00:21.340Z,2.50
2019-03-18T14:02:49.880Z,2.20
2019-03-18T14:05:18.246Z,2.40
2019-03-18T14:07:58.914Z,3.07
2019-03-18T14:10:19.770Z,2.43
2019-03-18T14:12:48.142Z,2.40
2019-03-18T14:15:22.132Z,2.20
2019-03-18T14:17:50.672Z,2.07
2019-03-18T14:20:29.494Z,2.83
2019-03-18T14:22:57.870Z,2.60
2019-03-18T14:25:26.233Z,2.50
2019-03-18T14:27:54.607Z,2.07
2019-03-18T14:30:23.526Z,2.03
2019-03-18T14:32:51.901Z,2.77
2019-03-18T14:35:21.617Z,2.90
2019-03-18T14:37:50.393Z,2.50
2019-03-18T14:40:20.130Z,2.33
2019-03-18T14:42:48.470Z,2.03
2019-03-18T14:45:20.474Z,2.03
2019-03-18T14:47:48.851Z,2.80
2019-03-18T14:50:18.349Z,2.47
2019-03-18T14:52:46.727Z,2.40
2019-03-18T14:55:16.128Z,2.20
2019-03-18T14:57:44.507Z,2.40
2019-03-18T15:00:20.981Z,2.60
2019-03-18T15:02:49.357Z,2.77
2019-03-18T15:05:17.872Z,3.53
2019-03-18T15:07:46.302Z,2.67
2019-03-18T15:10:16.976Z,2.97
2019-03-18T15:12:45.353Z,2.90
2019-03-18T15:15:15.458Z,3.87
2019-03-18T15:17:43.865Z,2.90
2019-03-18T15:20:15.966Z,3.00
2019-03-18T15:22:44.328Z,3.87
2019-03-18T15:25:15.280Z,2.83
2019-03-18T15:27:43.654Z,3.00
2019-03-18T15:30:17.575Z,3.93
2019-03-18T15:32:46.006Z,3.40
2019-03-18T15:35:15.221Z,4.60
2019-03-18T15:37:43.589Z,4.50
2019-03-18T15:40:14.601Z,3.60
2019-03-18T15:42:43.046Z,4.10
2019-03-18T15:45:13.969Z,3.73
2019-03-18T15:47:42.406Z,4.10
2019-03-18T15:50:13.829Z,3.83
2019-03-18T15:52:42.257Z,3.73
2019-03-18T15:55:10.708Z,3.27
2019-03-18T15:57:39.090Z,3.83
2019-03-18T16:00:15.781Z,3.30
2019-03-18T16:02:44.307Z,3.60
2019-03-18T16:05:12.827Z,3.53
2019-03-18T16:07:41.195Z,3.53
2019-03-18T16:10:12.013Z,3.87
2019-03-18T16:12:40.465Z,3.23
2019-03-18T16:15:11.196Z,3.37
2019-03-18T16:17:41.572Z,3.10
2019-03-18T16:20:14.792Z,3.57
2019-03-18T16:22:43.221Z,3.20
2019-03-18T16:25:12.664Z,3.43
2019-03-18T16:27:41.028Z,3.80
2019-03-18T16:30:14.585Z,3.10
2019-03-18T16:32:43.041Z,3.33
2019-03-18T16:35:15.930Z,3.00
2019-03-18T16:37:43.774Z,3.00
2019-03-18T16:40:14.444Z,3.37
2019-03-18T16:42:43.152Z,3.23
2019-03-18T16:45:15.848Z,3.17
2019-03-18T16:47:44.216Z,3.13
2019-03-18T16:50:15.629Z,4.50
2019-03-18T16:52:44.216Z,3.10
2019-03-18T16:55:12.822Z,3.50
2019-03-18T16:57:41.177Z,3.40
2019-03-18T17:00:15.394Z,3.37
2019-03-18T17:02:44.017Z,3.53
2019-03-18T17:05:12.384Z,3.47
2019-03-18T17:07:40.848Z,3.37
2019-03-18T17:10:13.692Z,3.10
2019-03-18T17:12:42.193Z,3.30
2019-03-18T17:15:14.598Z,2.90
2019-03-18T17:17:43.047Z,3.40
2019-03-18T17:20:12.871Z,3.10
2019-03-18T17:22:48.974Z,2.40
2019-03-18T17:25:28.537Z,3.70
2019-03-18T17:27:56.995Z,3.33
2019-03-18T17:30:26.816Z,2.57
2019-03-18T17:32:55.621Z,3.13
2019-03-18T17:35:24.279Z,3.00
2019-03-18T17:37:52.719Z,3.10
2019-03-18T17:40:22.115Z,2.87
2019-03-18T17:42:50.550Z,3.07
2019-03-18T17:45:19.721Z,2.90
2019-03-18T17:47:48.094Z,2.70
2019-03-18T17:50:21.302Z,3.20
2019-03-18T17:53:01.817Z,2.90
2019-03-18T17:55:19.910Z,3.17
2019-03-18T17:57:48.629Z,4.33
2019-03-18T18:00:37.474Z,2.60
2019-03-18T18:03:06.142Z,2.77
2019-03-18T18:05:34.506Z,3.43
2019-03-18T18:08:02.880Z,2.90
2019-03-18T18:10:31.249Z,2.93
2019-03-18T18:12:59.621Z,2.67
2019-03-18T18:15:27.992Z,3.00
2019-03-18T18:17:56.370Z,3.60
2019-03-18T18:20:24.729Z,2.33
2019-03-18T18:22:53.122Z,2.50
2019-03-18T18:25:21.595Z,2.43
2019-03-18T18:27:50.022Z,2.97
2019-03-18T18:30:19.038Z,2.60
2019-03-18T18:32:47.467Z,2.73
2019-03-18T18:35:15.826Z,2.23
2019-03-18T18:37:44.194Z,2.70
2019-03-18T18:40:29.079Z,2.50
2019-03-18T18:42:57.619Z,3.17
2019-03-18T18:45:26.054Z,3.10
2019-03-18T18:47:54.421Z,2.63
2019-03-18T18:50:22.860Z,2.80
2019-03-18T18:52:51.225Z,2.60
2019-03-18T18:55:19.682Z,2.23
2019-03-18T18:57:48.060Z,2.40
2019-03-18T19:00:20.491Z,2.00
2019-03-18T19:02:48.952Z,2.80
2019-03-18T19:05:17.848Z,2.77
2019-03-18T19:07:46.219Z,2.70
2019-03-18T19:10:17.706Z,2.50
2019-03-18T19:12:46.086Z,2.60
2019-03-18T19:15:31.925Z,2.80
2019-03-18T19:18:00.371Z,3.23
2019-03-18T19:20:28.733Z,3.30
2019-03-18T19:22:57.118Z,5.07
2019-03-18T19:25:25.480Z,4.60
2019-03-18T19:27:53.851Z,5.10
2019-03-18T19:30:23.063Z,4.60
2019-03-18T19:32:51.508Z,5.00
2019-03-18T19:35:19.958Z,5.20
2019-03-18T19:37:48.327Z,4.70
2019-03-18T19:40:23.204Z,4.03
2019-03-18T19:42:51.672Z,4.30
2019-03-18T19:45:20.100Z,4.23
2019-03-18T19:47:48.475Z,5.20
2019-03-18T19:50:24.928Z,5.00
2019-03-18T19:52:53.316Z,4.67
2019-03-18T19:55:21.683Z,4.27
2019-03-18T19:57:50.046Z,4.50
2019-03-18T20:00:26.551Z,4.73
2019-03-18T20:02:55.004Z,4.53
2019-03-18T20:05:23.448Z,4.87
2019-03-18T20:07:51.821Z,4.87
2019-03-18T20:10:23.484Z,4.93
2019-03-18T20:12:52.183Z,4.53
2019-03-18T20:15:20.819Z,4.80
2019-03-18T20:17:49.350Z,4.73
2019-03-18T20:20:18.695Z,4.70
2019-03-18T20:22:47.319Z,5.40
2019-03-18T20:25:16.159Z,5.30
2019-03-18T20:27:44.523Z,5.00
2019-03-18T20:30:20.094Z,4.70
2019-03-18T20:32:48.601Z,5.10
2019-03-18T20:35:21.054Z,5.03
2019-03-18T20:37:51.940Z,5.10
2019-03-18T20:40:19.664Z,4.63
2019-03-18T20:42:48.086Z,4.63
2019-03-18T20:45:21.627Z,4.40
2019-03-18T20:47:49.996Z,4.80
2019-03-18T20:50:20.370Z,4.87
2019-03-18T20:52:48.925Z,4.33
2019-03-18T20:55:17.778Z,4.70
2019-03-18T20:57:46.219Z,5.13
2019-03-18T21:00:16.797Z,4.50
2019-03-18T21:02:45.165Z,5.50
2019-03-18T21:05:13.536Z,5.03
2019-03-18T21:07:41.901Z,4.60
2019-03-18T21:10:12.214Z,4.87
2019-03-18T21:12:41.474Z,5.00
2019-03-18T21:15:11.846Z,5.00
2019-03-18T21:17:40.371Z,4.67
2019-03-18T21:20:16.487Z,4.90
2019-03-18T21:22:44.860Z,4.90
2019-03-18T21:25:13.887Z,5.00
2019-03-18T21:27:42.253Z,4.60
2019-03-18T21:30:18.428Z,5.23
2019-03-18T21:32:46.939Z,5.30
2019-03-18T21:35:15.255Z,4.90
2019-03-18T21:37:43.783Z,5.00
2019-03-18T21:40:17.293Z,5.33
2019-03-18T21:42:45.667Z,5.30
2019-03-18T21:45:17.085Z,5.27
2019-03-18T21:47:45.563Z,5.10
2019-03-18T21:50:15.731Z,5.13
2019-03-18T21:52:44.251Z,5.60
2019-03-18T21:55:13.262Z,4.90
2019-03-18T21:57:41.630Z,5.20
2019-03-18T22:00:15.296Z,4.97
2019-03-18T22:02:43.658Z,5.37
2019-03-18T22:05:12.093Z,5.90
2019-03-18T22:07:40.567Z,5.23
2019-03-18T22:10:16.771Z,5.30
2019-03-18T22:12:46.084Z,5.27
2019-03-18T22:15:14.876Z,5.27
2019-03-18T22:17:43.421Z,5.37
2019-03-18T22:20:21.643Z,5.27
2019-03-18T22:22:50.101Z,5.93
2019-03-18T22:25:18.484Z,5.93
2019-03-18T22:27:46.945Z,6.10
2019-03-18T22:30:17.326Z,6.30
2019-03-18T22:32:45.704Z,5.67
2019-03-18T22:35:14.203Z,5.27
2019-03-18T22:37:42.646Z,5.37
2019-03-18T22:40:15.406Z,5.70
2019-03-18T22:42:43.857Z,5.87
2019-03-18T22:45:13.359Z,5.10
2019-03-18T22:47:41.747Z,5.73
2019-03-18T22:50:11.478Z,5.37
2019-03-18T22:52:39.865Z,5.80
2019-03-18T22:55:10.165Z,6.00
2019-03-18T22:57:39.219Z,5.70
2019-03-18T23:00:14.767Z,5.63
2019-03-18T23:02:43.146Z,4.90
2019-03-18T23:05:14.240Z,5.80
2019-03-18T23:07:42.629Z,5.50
2019-03-18T23:10:11.075Z,5.47
2019-03-18T23:12:39.458Z,5.83
2019-03-18T23:15:09.727Z,4.90
2019-03-18T23:17:38.255Z,5.00
2019-03-18T23:20:07.449Z,5.60
2019-03-18T23:22:35.835Z,5.37
2019-03-18T23:25:07.783Z,5.30
2019-03-18T23:27:35.636Z,5.70
2019-03-18T23:30:05.780Z,4.80
2019-03-18T23:32:34.152Z,5.70
2019-03-18T23:35:02.586Z,5.10
2019-03-18T23:37:30.959Z,5.53
2019-03-18T23:39:59.318Z,5.43
2019-03-18T23:42:27.687Z,5.03
2019-03-18T23:44:56.064Z,5.30
2019-03-18T23:47:24.444Z,5.20
2019-03-18T23:49:52.810Z,5.50
2019-03-18T23:52:21.306Z,5.27
2019-03-18T23:54:49.692Z,4.97
2019-03-18T23:57:18.063Z,4.93
2019-03-18T23:59:46.428Z,5.50
